Time;durP1;ratioP1;P1;durP2;ratioP2;P2;SDS_P1;SDS_P2;PMS_P1;PMS_P2;Temp;Humidity;BMP_temperature;BMP_pressure;BME280_temperature;BME280_humidity;BME280_pressure;Samples;Min_cycle;Max_cycle;Signal;HPM_P1;HPM_P2
2022/11/14 00:00:30;;;;;;;76.75;26.73;;;;;;;;;;5031919;28;20060;-69
2022/11/14 00:02:58;;;;;;;75.47;27.50;;;;;;;;;;5030388;28;20109;-66
2022/11/14 00:05:23;;;;;;;64.50;26.45;;;;;;;;;;5030607;28;20021;-67
2022/11/14 00:07:48;;;;;;;88.82;29.00;;;;;;;;;;5027209;28;20072;-69
2022/11/14 00:10:15;;;;;;;76.32;27.48;;;;;;;;;;5023666;28;20021;-67
2022/11/14 00:12:40;;;;;;;70.50;28.23;;;;;;;;;;5031025;28;20025;-69
2022/11/14 00:15:05;;;;;;;70.90;26.95;;;;;;;;;;5032242;28;20018;-67
2022/11/14 00:17:31;;;;;;;86.90;28.42;;;;;;;;;;5029592;28;20032;-69
2022/11/14 00:19:56;;;;;;;58.88;24.60;;;;;;;;;;5031636;28;20475;-68
2022/11/14 00:22:21;;;;;;;75.20;25.65;;;;;;;;;;5030764;28;20071;-66
2022/11/14 00:24:47;;;;;;;92.80;26.02;;;;;;;;;;5031824;28;20063;-70
2022/11/14 00:27:12;;;;;;;76.30;27.33;;;;;;;;;;5030649;28;20587;-69
2022/11/14 00:29:38;;;;;;;74.63;27.38;;;;;;;;;;5032351;28;20013;-68
2022/11/14 00:32:03;;;;;;;77.68;26.45;;;;;;;;;;5030633;28;20040;-69
2022/11/14 00:34:28;;;;;;;79.57;28.23;;;;;;;;;;5031863;28;20025;-68
2022/11/14 00:36:54;;;;;;;74.68;26.58;;;;;;;;;;5030723;28;20013;-65
2022/11/14 00:39:19;;;;;;;77.07;28.55;;;;;;;;;;5031449;28;20025;-68
2022/11/14 00:41:44;;;;;;;70.05;25.98;;;;;;;;;;5031110;28;20095;-67
2022/11/14 00:44:10;;;;;;;95.28;29.05;;;;;;;;;;5031804;28;20115;-69
2022/11/14 00:46:35;;;;;;;71.57;28.02;;;;;;;;;;5028951;28;20465;-69
2022/11/14 00:49:00;;;;;;;82.10;28.60;;;;;;;;;;5028616;28;20017;-65
2022/11/14 00:51:26;;;;;;;91.22;28.48;;;;;;;;;;5031139;28;20036;-69
2022/11/14 00:53:51;;;;;;;79.10;28.15;;;;;;;;;;5030336;28;20034;-66
2022/11/14 00:56:16;;;;;;;75.82;26.38;;;;;;;;;;5030683;28;20092;-68
2022/11/14 00:58:41;;;;;;;61.50;25.73;;;;;;;;;;5029858;28;20117;-64
2022/11/14 01:01:07;;;;;;;71.05;26.40;;;;;;;;;;5030894;28;20105;-67
2022/11/14 01:03:32;;;;;;;61.70;25.58;;;;;;;;;;5030188;28;20059;-65
2022/11/14 01:06:02;;;;;;;71.97;27.17;;;;;;;;;;5025917;28;20040;-68
2022/11/14 01:08:27;;;;;;;70.90;27.30;;;;;;;;;;5030176;28;20029;-68
2022/11/14 01:10:52;;;;;;;69.40;28.30;;;;;;;;;;5032090;28;20017;-69
2022/11/14 01:13:18;;;;;;;62.65;24.98;;;;;;;;;;5032076;28;20128;-66
2022/11/14 01:15:45;;;;;;;64.65;27.52;;;;;;;;;;5032023;28;20017;-66
2022/11/14 01:18:11;;;;;;;66.18;28.17;;;;;;;;;;5029404;28;20025;-65
2022/11/14 01:20:40;;;;;;;62.33;26.80;;;;;;;;;;5030264;28;20022;-69
2022/11/14 01:23:05;;;;;;;;;;;;;;;;;;5029018;28;20169;-69
2022/11/14 01:25:32;;;;;;;67.22;26.42;;;;;;;;;;5030485;28;20009;-64
2022/11/14 01:27:57;;;;;;;71.80;27.88;;;;;;;;;;5029566;28;20261;-69
2022/11/14 01:30:22;;;;;;;69.68;26.92;;;;;;;;;;5024462;28;20021;-66
2022/11/14 01:32:47;;;;;;;69.90;25.17;;;;;;;;;;5025367;28;20112;-68
2022/11/14 01:35:13;;;;;;;62.00;25.58;;;;;;;;;;5029684;28;20545;-68
2022/11/14 01:37:38;;;;;;;71.68;28.27;;;;;;;;;;5029435;28;20564;-70
2022/11/14 01:40:03;;;;;;;65.63;27.80;;;;;;;;;;5029492;28;20025;-68
2022/11/14 01:42:29;;;;;;;65.63;26.05;;;;;;;;;;5025126;28;20105;-67
2022/11/14 01:44:54;;;;;;;70.75;26.65;;;;;;;;;;5030249;28;20049;-67
2022/11/14 01:47:21;;;;;;;66.93;25.27;;;;;;;;;;5029048;28;20025;-69
2022/11/14 01:49:48;;;;;;;75.97;29.05;;;;;;;;;;5029325;28;20079;-68
2022/11/14 01:52:14;;;;;;;65.10;26.42;;;;;;;;;;5029799;28;20476;-68
2022/11/14 01:54:42;;;;;;;70.68;29.42;;;;;;;;;;5028602;28;20067;-65
2022/11/14 01:57:08;;;;;;;62.17;27.25;;;;;;;;;;5029273;28;20035;-68
2022/11/14 01:59:35;;;;;;;64.80;26.60;;;;;;;;;;5029015;28;20021;-67
2022/11/14 02:02:07;;;;;;;63.83;27.80;;;;;;;;;;5029239;28;20030;-66
2022/11/14 02:04:34;;;;;;;71.00;27.20;;;;;;;;;;5024393;28;20094;-65
2022/11/14 02:07:01;;;;;;;65.38;25.42;;;;;;;;;;5027324;28;20387;-69
2022/11/14 02:09:28;;;;;;;58.90;24.27;;;;;;;;;;5026386;28;20036;-66
2022/11/14 02:11:55;;;;;;;65.20;25.08;;;;;;;;;;5029825;28;20074;-65
2022/11/14 02:14:20;;;;;;;63.30;26.83;;;;;;;;;;5029190;28;20389;-66
2022/11/14 02:16:46;;;;;;;65.53;26.35;;;;;;;;;;5028250;28;20020;-69
2022/11/14 02:19:13;;;;;;;57.53;23.70;;;;;;;;;;5028536;28;20021;-66
2022/11/14 02:21:38;;;;;;;60.42;24.50;;;;;;;;;;5029045;28;20022;-68
2022/11/14 02:24:07;;;;;;;58.60;24.90;;;;;;;;;;5028468;28;20079;-66
2022/11/14 02:26:32;;;;;;;67.82;27.10;;;;;;;;;;5028619;28;20548;-68
2022/11/14 02:28:58;;;;;;;54.25;25.17;;;;;;;;;;5029544;28;20040;-68
2022/11/14 02:31:23;;;;;;;59.42;24.73;;;;;;;;;;5027753;28;20068;-67
2022/11/14 02:33:48;;;;;;;66.25;26.52;;;;;;;;;;5028354;28;20395;-69
2022/11/14 02:36:13;;;;;;;58.20;25.05;;;;;;;;;;5028805;28;20503;-70
2022/11/14 02:38:38;;;;;;;66.70;24.85;;;;;;;;;;5028068;28;20025;-70
2022/11/14 02:41:04;;;;;;;59.90;22.30;;;;;;;;;;5028798;28;20061;-67
2022/11/14 02:43:29;;;;;;;51.40;22.70;;;;;;;;;;5029152;28;20021;-68
2022/11/14 02:45:54;;;;;;;58.95;24.08;;;;;;;;;;5028442;28;20033;-68
2022/11/14 02:48:19;;;;;;;64.55;25.15;;;;;;;;;;5027593;28;20029;-66
2022/11/14 02:50:47;;;;;;;59.58;25.25;;;;;;;;;;5028938;28;20014;-69
2022/11/14 02:53:12;;;;;;;60.33;24.23;;;;;;;;;;5028258;28;20108;-66
2022/11/14 02:55:37;;;;;;;60.78;25.42;;;;;;;;;;5029234;28;20106;-67
2022/11/14 02:58:02;;;;;;;60.17;26.45;;;;;;;;;;5027557;28;20017;-68
2022/11/14 03:00:28;;;;;;;60.70;24.85;;;;;;;;;;5029027;28;20471;-69
2022/11/14 03:02:53;;;;;;;55.15;22.75;;;;;;;;;;5028265;28;20191;-67
2022/11/14 03:05:19;;;;;;;65.63;24.75;;;;;;;;;;5028333;28;20037;-69
2022/11/14 03:07:44;;;;;;;66.22;24.58;;;;;;;;;;5025943;28;20027;-69
2022/11/14 03:10:10;;;;;;;55.85;23.85;;;;;;;;;;5029829;28;20045;-67
2022/11/14 03:12:35;;;;;;;62.95;23.65;;;;;;;;;;5032799;28;20567;-66
2022/11/14 03:15:00;;;;;;;57.80;23.88;;;;;;;;;;5032740;28;20026;-68
2022/11/14 03:17:29;;;;;;;53.38;24.13;;;;;;;;;;5031274;28;20049;-66
2022/11/14 03:19:54;;;;;;;56.90;25.00;;;;;;;;;;5031030;28;20021;-69
2022/11/14 03:22:20;;;;;;;55.75;22.77;;;;;;;;;;5032270;28;20025;-70
2022/11/14 03:24:45;;;;;;;59.65;23.90;;;;;;;;;;5031360;28;20022;-68
2022/11/14 03:27:10;;;;;;;63.80;23.08;;;;;;;;;;5031799;28;20033;-67
2022/11/14 03:29:35;;;;;;;56.50;22.42;;;;;;;;;;5028099;28;20092;-70
2022/11/14 03:32:00;;;;;;;56.25;23.48;;;;;;;;;;5030047;28;20037;-67
2022/11/14 03:34:26;;;;;;;55.65;23.30;;;;;;;;;;5031133;28;20056;-68
2022/11/14 03:36:51;;;;;;;59.22;24.38;;;;;;;;;;5030827;28;20021;-67
2022/11/14 03:39:16;;;;;;;55.40;23.45;;;;;;;;;;5031415;28;20056;-69
2022/11/14 03:41:41;;;;;;;57.53;25.58;;;;;;;;;;5024719;28;20017;-68
2022/11/14 03:44:10;;;;;;;62.60;28.80;;;;;;;;;;5030825;28;20108;-67
2022/11/14 03:46:35;;;;;;;57.90;26.92;;;;;;;;;;5029651;28;20515;-67
2022/11/14 03:49:00;;;;;;;60.78;27.83;;;;;;;;;;5031518;28;20104;-64
2022/11/14 03:51:25;;;;;;;54.50;22.92;;;;;;;;;;5031576;28;20029;-67
2022/11/14 03:53:50;;;;;;;55.97;25.10;;;;;;;;;;5030907;28;20030;-68
2022/11/14 03:56:16;;;;;;;57.38;24.65;;;;;;;;;;5030997;28;20041;-68
2022/11/14 03:58:41;;;;;;;49.05;22.23;;;;;;;;;;5031954;28;20030;-68
2022/11/14 04:01:06;;;;;;;49.50;22.30;;;;;;;;;;5031698;28;20402;-69
2022/11/14 04:03:31;;;;;;;49.60;20.92;;;;;;;;;;5035129;28;20294;-69
2022/11/14 04:05:57;;;;;;;57.58;22.67;;;;;;;;;;5029886;28;20025;-66
2022/11/14 04:08:22;;;;;;;50.35;21.90;;;;;;;;;;5031379;28;20071;-67
2022/11/14 04:10:48;;;;;;;54.92;21.88;;;;;;;;;;5033678;28;20029;-67
2022/11/14 04:13:14;;;;;;;51.92;21.13;;;;;;;;;;5032358;28;20026;-68
2022/11/14 04:15:39;;;;;;;53.28;21.63;;;;;;;;;;5031137;28;20037;-65
2022/11/14 04:18:04;;;;;;;54.15;21.67;;;;;;;;;;5031094;28;20018;-67
2022/11/14 04:20:29;;;;;;;51.17;20.70;;;;;;;;;;5030975;28;20033;-68
2022/11/14 04:22:55;;;;;;;46.38;21.65;;;;;;;;;;5030470;28;20079;-68
2022/11/14 04:25:20;;;;;;;55.58;21.98;;;;;;;;;;5030937;28;20025;-68
2022/11/14 04:27:45;;;;;;;45.13;19.10;;;;;;;;;;5030865;28;20021;-67
2022/11/14 04:30:10;;;;;;;53.65;21.55;;;;;;;;;;5030660;28;20544;-69
2022/11/14 04:32:36;;;;;;;56.00;22.00;;;;;;;;;;5030769;28;20040;-65
2022/11/14 04:35:01;;;;;;;50.65;21.13;;;;;;;;;;5029881;28;20036;-65
2022/11/14 04:37:26;;;;;;;48.97;20.90;;;;;;;;;;5031214;28;20024;-68
2022/11/14 04:39:52;;;;;;;46.90;21.55;;;;;;;;;;5032446;28;20025;-67
2022/11/14 04:42:17;;;;;;;46.35;18.60;;;;;;;;;;5026983;28;20070;-64
2022/11/14 04:44:42;;;;;;;42.80;17.98;;;;;;;;;;5031991;28;20065;-68
2022/11/14 04:47:07;;;;;;;50.58;20.23;;;;;;;;;;5031316;28;20113;-66
2022/11/14 04:49:33;;;;;;;49.55;20.52;;;;;;;;;;5031183;28;20063;-65
2022/11/14 04:51:58;;;;;;;44.05;18.65;;;;;;;;;;5031157;28;20084;-67
2022/11/14 04:54:23;;;;;;;45.85;20.20;;;;;;;;;;5029484;28;20057;-69
2022/11/14 04:56:48;;;;;;;50.13;20.98;;;;;;;;;;5029564;28;20067;-69
2022/11/14 04:59:14;;;;;;;49.45;20.83;;;;;;;;;;5030593;28;20075;-66
2022/11/14 05:01:39;;;;;;;48.38;22.30;;;;;;;;;;5028579;28;20127;-69
2022/11/14 05:04:04;;;;;;;55.78;21.65;;;;;;;;;;5016959;28;20532;-69
2022/11/14 05:06:30;;;;;;;49.95;22.17;;;;;;;;;;5029971;28;20519;-68
2022/11/14 05:08:55;;;;;;;49.80;21.05;;;;;;;;;;5030782;28;20440;-67
2022/11/14 05:11:20;;;;;;;45.95;21.30;;;;;;;;;;5029654;28;20021;-69
2022/11/14 05:13:45;;;;;;;47.40;21.30;;;;;;;;;;5031650;28;20053;-67
2022/11/14 05:16:11;;;;;;;54.90;22.60;;;;;;;;;;5030340;28;20392;-67
2022/11/14 05:18:37;;;;;;;48.05;20.90;;;;;;;;;;5023167;28;20017;-65
2022/11/14 05:21:02;;;;;;;59.88;22.52;;;;;;;;;;5028114;28;20021;-69
2022/11/14 05:23:27;;;;;;;52.08;22.00;;;;;;;;;;5028479;28;20071;-66
2022/11/14 05:26:22;;;;;;;50.72;22.35;;;;;;;;;;5029776;28;20040;-65
2022/11/14 05:28:47;;;;;;;56.35;22.77;;;;;;;;;;5025611;28;20060;-68
2022/11/14 05:31:19;;;;;;;54.60;21.38;;;;;;;;;;5030448;28;20406;-67
2022/11/14 05:33:45;;;;;;;49.13;21.98;;;;;;;;;;5032116;28;20420;-68
2022/11/14 05:36:12;;;;;;;50.47;21.00;;;;;;;;;;5029245;28;20036;-68
2022/11/14 05:38:37;;;;;;;52.80;22.35;;;;;;;;;;5029429;28;20495;-65
2022/11/14 05:41:07;;;;;;;55.55;22.92;;;;;;;;;;5028829;28;20032;-69
2022/11/14 05:43:32;;;;;;;;;;;;;;;;;;5032660;28;20085;-67
2022/11/14 05:46:04;;;;;;;47.00;21.27;;;;;;;;;;5027895;28;20383;-69
2022/11/14 05:48:30;;;;;;;44.67;19.48;;;;;;;;;;5028611;28;20303;-69
2022/11/14 05:50:56;;;;;;;48.60;21.33;;;;;;;;;;5029709;28;20111;-69
2022/11/14 05:53:21;;;;;;;57.38;22.27;;;;;;;;;;5026573;28;20025;-69
2022/11/14 05:55:46;;;;;;;51.60;21.83;;;;;;;;;;5027545;28;20645;-68
2022/11/14 05:58:11;;;;;;;47.80;21.30;;;;;;;;;;5031578;28;20027;-70
2022/11/14 06:00:37;;;;;;;51.35;21.52;;;;;;;;;;5026702;28;20029;-71
2022/11/14 06:03:02;;;;;;;44.70;21.98;;;;;;;;;;5030292;28;20031;-70
2022/11/14 06:05:27;;;;;;;51.05;22.23;;;;;;;;;;5029758;28;20030;-68
2022/11/14 06:07:56;;;;;;;51.17;21.60;;;;;;;;;;5027964;28;20037;-69
2022/11/14 06:10:21;;;;;;;46.10;20.35;;;;;;;;;;5028739;28;20017;-69
2022/11/14 06:12:46;;;;;;;52.13;23.27;;;;;;;;;;5031317;28;20424;-70
2022/11/14 06:15:12;;;;;;;54.65;23.20;;;;;;;;;;5024212;28;20031;-70
2022/11/14 06:17:37;;;;;;;49.70;21.98;;;;;;;;;;5029544;28;20029;-67
2022/11/14 06:20:02;;;;;;;54.88;21.65;;;;;;;;;;5025785;28;20030;-70
2022/11/14 06:22:27;;;;;;;52.40;22.45;;;;;;;;;;5030193;28;20021;-69
2022/11/14 06:24:53;;;;;;;54.53;21.52;;;;;;;;;;5028851;28;20018;-70
2022/11/14 06:27:18;;;;;;;61.10;23.15;;;;;;;;;;5027890;28;20021;-69
2022/11/14 06:29:43;;;;;;;43.72;20.58;;;;;;;;;;5030474;28;20017;-69
2022/11/14 06:32:08;;;;;;;47.00;20.67;;;;;;;;;;5028907;28;20040;-68
2022/11/14 06:34:34;;;;;;;51.25;19.95;;;;;;;;;;5028851;28;20029;-71
2022/11/14 06:36:59;;;;;;;46.83;20.25;;;;;;;;;;5028754;28;20108;-70
2022/11/14 06:39:24;;;;;;;48.90;19.83;;;;;;;;;;5028983;28;20621;-70
2022/11/14 06:41:49;;;;;;;46.78;20.55;;;;;;;;;;5029373;28;20503;-70
2022/11/14 06:44:15;;;;;;;43.55;17.90;;;;;;;;;;5028960;28;20041;-70
2022/11/14 06:46:40;;;;;;;47.08;20.45;;;;;;;;;;5028190;28;20021;-70
2022/11/14 06:49:05;;;;;;;47.85;19.92;;;;;;;;;;5026820;28;20029;-67
2022/11/14 06:51:30;;;;;;;43.08;18.80;;;;;;;;;;5028139;28;20029;-71
2022/11/14 06:53:56;;;;;;;52.97;21.10;;;;;;;;;;5027826;28;20036;-70
2022/11/14 06:56:21;;;;;;;50.15;22.27;;;;;;;;;;5028222;28;20110;-71
2022/11/14 06:58:47;;;;;;;47.85;22.15;;;;;;;;;;5028642;28;20419;-69
2022/11/14 07:01:14;;;;;;;47.65;20.48;;;;;;;;;;5029274;28;20017;-69
2022/11/14 07:03:40;;;;;;;50.10;23.02;;;;;;;;;;5028472;28;20148;-70
2022/11/14 07:06:06;;;;;;;51.78;22.55;;;;;;;;;;5026814;28;20096;-71
2022/11/14 07:08:32;;;;;;;46.13;20.65;;;;;;;;;;5026892;28;20018;-69
2022/11/14 07:11:07;;;;;;;56.45;24.83;;;;;;;;;;5031874;28;20029;-68
2022/11/14 07:13:33;;;;;;;54.60;21.65;;;;;;;;;;5031089;28;20040;-71
2022/11/14 07:15:58;;;;;;;52.22;22.10;;;;;;;;;;5032057;28;20507;-68
2022/11/14 07:18:24;;;;;;;66.45;25.80;;;;;;;;;;5030449;28;20129;-71
2022/11/14 07:20:55;;;;;;;61.20;23.15;;;;;;;;;;5029745;28;20406;-71
2022/11/14 07:23:20;;;;;;;51.67;23.42;;;;;;;;;;5029107;28;20113;-69
2022/11/14 07:25:45;;;;;;;47.25;22.55;;;;;;;;;;5030964;28;20024;-70
2022/11/14 07:28:11;;;;;;;58.95;24.17;;;;;;;;;;5028479;28;20026;-69
2022/11/14 07:30:36;;;;;;;49.25;21.20;;;;;;;;;;5023641;28;20383;-68
2022/11/14 07:33:01;;;;;;;50.25;22.75;;;;;;;;;;5028360;28;20099;-71
2022/11/14 07:35:26;;;;;;;49.10;20.67;;;;;;;;;;5029111;28;20044;-69
2022/11/14 07:37:52;;;;;;;54.92;24.70;;;;;;;;;;5027526;28;20017;-70
2022/11/14 07:40:17;;;;;;;55.33;23.77;;;;;;;;;;5028818;28;20018;-69
2022/11/14 07:42:43;;;;;;;53.80;25.33;;;;;;;;;;5028709;28;20085;-71
2022/11/14 07:45:09;;;;;;;52.75;21.73;;;;;;;;;;5029690;28;20018;-72
2022/11/14 07:47:34;;;;;;;53.00;23.13;;;;;;;;;;5029065;28;20025;-71
2022/11/14 07:49:59;;;;;;;53.63;24.35;;;;;;;;;;5028738;28;20014;-70
2022/11/14 07:52:24;;;;;;;65.70;25.08;;;;;;;;;;5028393;28;20518;-70
2022/11/14 07:54:50;;;;;;;56.50;24.63;;;;;;;;;;5029228;28;20336;-70
2022/11/14 07:57:15;;;;;;;44.05;22.77;;;;;;;;;;5029807;28;20501;-69
2022/11/14 07:59:40;;;;;;;61.10;26.65;;;;;;;;;;5031158;28;20499;-70
2022/11/14 08:02:09;;;;;;;66.05;28.20;;;;;;;;;;5032420;28;20024;-70
2022/11/14 08:04:34;;;;;;;70.70;28.13;;;;;;;;;;5026870;28;20116;-70
2022/11/14 08:06:59;;;;;;;69.18;27.27;;;;;;;;;;5031307;28;20100;-70
2022/11/14 08:09:24;;;;;;;64.65;27.02;;;;;;;;;;5031677;28;20041;-69
2022/11/14 08:11:50;;;;;;;71.82;29.17;;;;;;;;;;5032231;28;20029;-71
2022/11/14 08:14:15;;;;;;;111.47;38.97;;;;;;;;;;5031339;28;20394;-68
2022/11/14 08:16:41;;;;;;;87.82;35.78;;;;;;;;;;5030570;28;20045;-70
2022/11/14 08:19:06;;;;;;;100.10;38.10;;;;;;;;;;5027201;28;20523;-74
2022/11/14 08:21:32;;;;;;;87.97;33.55;;;;;;;;;;5031360;28;20014;-71
2022/11/14 08:23:57;;;;;;;72.68;30.80;;;;;;;;;;5032690;28;20483;-69
2022/11/14 08:26:22;;;;;;;78.10;31.65;;;;;;;;;;5031516;28;20534;-68
2022/11/14 08:28:51;;;;;;;95.38;33.83;;;;;;;;;;5031792;28;20092;-70
2022/11/14 08:31:16;;;;;;;78.68;30.80;;;;;;;;;;5031091;28;20049;-67
2022/11/14 08:33:41;;;;;;;71.43;28.42;;;;;;;;;;5030371;28;20415;-69
2022/11/14 08:36:07;;;;;;;75.75;31.10;;;;;;;;;;5031462;28;20075;-68
2022/11/14 08:38:33;;;;;;;64.20;28.42;;;;;;;;;;5029966;28;20060;-71
2022/11/14 08:40:59;;;;;;;76.95;30.05;;;;;;;;;;5028764;28;20018;-70
2022/11/14 08:43:24;;;;;;;72.35;30.77;;;;;;;;;;5032146;28;20018;-70
2022/11/14 08:45:49;;;;;;;82.53;31.38;;;;;;;;;;5031168;28;20032;-69
2022/11/14 08:48:15;;;;;;;81.05;32.20;;;;;;;;;;5030483;28;20026;-70
2022/11/14 08:50:43;;;;;;;75.13;31.08;;;;;;;;;;5032629;28;20029;-70
2022/11/14 08:53:08;;;;;;;77.03;30.35;;;;;;;;;;5031542;28;20017;-70
2022/11/14 08:55:33;;;;;;;77.63;33.55;;;;;;;;;;5030264;28;20048;-68
2022/11/14 08:57:58;;;;;;;83.90;35.05;;;;;;;;;;5030495;28;20017;-70
2022/11/14 09:00:24;;;;;;;86.82;33.70;;;;;;;;;;5031462;28;20086;-69
2022/11/14 09:02:49;;;;;;;75.50;30.98;;;;;;;;;;5031346;28;20103;-71
2022/11/14 09:05:14;;;;;;;70.57;31.02;;;;;;;;;;5017745;28;20022;-70
2022/11/14 09:07:40;;;;;;;71.18;31.15;;;;;;;;;;5030279;28;20108;-70
2022/11/14 09:10:05;;;;;;;70.45;27.67;;;;;;;;;;5030743;28;20026;-69
2022/11/14 09:12:30;;;;;;;69.68;30.52;;;;;;;;;;5031525;28;20679;-71
2022/11/14 09:14:56;;;;;;;69.82;29.75;;;;;;;;;;5030372;28;20097;-72
2022/11/14 09:17:21;;;;;;;72.93;28.33;;;;;;;;;;5029624;28;20545;-71
2022/11/14 09:19:46;;;;;;;60.58;27.40;;;;;;;;;;5030425;28;20541;-70
2022/11/14 09:22:11;;;;;;;60.47;27.35;;;;;;;;;;5030839;28;20020;-71
2022/11/14 09:24:37;;;;;;;59.55;28.00;;;;;;;;;;5029992;28;20030;-70
2022/11/14 09:27:02;;;;;;;84.68;27.83;;;;;;;;;;5030837;28;20030;-68
2022/11/14 09:29:27;;;;;;;69.60;27.90;;;;;;;;;;5030593;28;20018;-71
2022/11/14 09:31:53;;;;;;;61.35;27.00;;;;;;;;;;5030102;28;20049;-70
2022/11/14 09:34:19;;;;;;;67.10;27.10;;;;;;;;;;5030316;28;20037;-70
2022/11/14 09:36:45;;;;;;;58.42;27.08;;;;;;;;;;5029327;28;20037;-68
2022/11/14 09:39:10;;;;;;;65.05;27.52;;;;;;;;;;5030132;28;20068;-70
2022/11/14 09:41:55;;;;;;;63.70;29.17;;;;;;;;;;5031031;28;20105;-70
2022/11/14 09:44:24;;;;;;;68.18;29.60;;;;;;;;;;5030658;28;20100;-71
2022/11/14 09:46:56;;;;;;;68.03;30.67;;;;;;;;;;5029297;28;20143;-71
2022/11/14 09:49:39;;;;;;;65.57;30.58;;;;;;;;;;5030154;28;20029;-69
2022/11/14 09:52:11;;;;;;;69.55;31.70;;;;;;;;;;5030833;28;20087;-71
2022/11/14 09:54:43;;;;;;;75.93;31.98;;;;;;;;;;5029343;28;20159;-71
2022/11/14 09:57:13;;;;;;;79.95;32.33;;;;;;;;;;5029573;28;20499;-69
2022/11/14 09:59:38;;;;;;;80.78;31.70;;;;;;;;;;5030295;28;20013;-71
2022/11/14 10:02:19;;;;;;;81.65;34.38;;;;;;;;;;5030529;28;20027;-70
2022/11/14 10:05:06;;;;;;;67.32;30.50;;;;;;;;;;5029187;28;20072;-70
2022/11/14 10:07:37;;;;;;;72.72;30.85;;;;;;;;;;5029491;28;20472;-69
2022/11/14 10:10:08;;;;;;;81.30;31.27;;;;;;;;;;5030312;28;20418;-73
2022/11/14 10:12:39;;;;;;;72.60;29.40;;;;;;;;;;5031258;28;20502;-70
2022/11/14 10:15:29;;;;;;;62.53;28.30;;;;;;;;;;5033946;28;20112;-71
2022/11/14 10:18:06;;;;;;;71.30;28.10;;;;;;;;;;5031221;28;20036;-71
2022/11/14 10:20:34;;;;;;;65.22;28.70;;;;;;;;;;5028462;28;20029;-69
2022/11/14 10:23:08;;;;;;;66.10;26.88;;;;;;;;;;5029913;28;20025;-71
2022/11/14 10:25:47;;;;;;;67.95;26.55;;;;;;;;;;5030026;28;20056;-72
2022/11/14 10:28:20;;;;;;;59.75;24.83;;;;;;;;;;5028844;28;20048;-71
2022/11/14 10:30:53;;;;;;;60.47;26.08;;;;;;;;;;5028900;28;20029;-70
2022/11/14 10:33:24;;;;;;;53.53;23.30;;;;;;;;;;5029481;28;20640;-68
2022/11/14 10:35:55;;;;;;;55.95;22.98;;;;;;;;;;5029992;28;20558;-67
2022/11/14 10:38:28;;;;;;;58.65;24.25;;;;;;;;;;5028146;28;20028;-70
2022/11/14 10:40:57;;;;;;;51.00;23.25;;;;;;;;;;5031148;28;20037;-70
2022/11/14 10:43:31;;;;;;;49.58;22.95;;;;;;;;;;5032482;28;20498;-70
2022/11/14 10:46:09;;;;;;;63.33;24.15;;;;;;;;;;5031986;28;20029;-68
2022/11/14 10:48:35;;;;;;;51.40;23.70;;;;;;;;;;5028151;28;20028;-69
2022/11/14 10:51:07;;;;;;;47.63;22.58;;;;;;;;;;5029846;28;20026;-68
2022/11/14 10:53:35;;;;;;;48.45;22.10;;;;;;;;;;5029476;28;20025;-71
2022/11/14 10:56:00;;;;;;;50.03;21.03;;;;;;;;;;5029823;28;20037;-71
2022/11/14 10:58:25;;;;;;;48.08;21.42;;;;;;;;;;5028990;28;20005;-71
2022/11/14 11:00:51;;;;;;;58.25;21.48;;;;;;;;;;5029744;28;20010;-71
2022/11/14 11:03:16;;;;;;;56.10;22.42;;;;;;;;;;5027153;28;20013;-70
2022/11/14 11:05:46;;;;;;;51.55;22.63;;;;;;;;;;5027665;28;20488;-67
2022/11/14 11:11:41;;;;;;;51.10;20.08;;;;;;;;;;5030553;28;20021;-70
2022/11/14 11:13:52;;;;;;;46.95;20.33;;;;;;;;;;5028624;28;20504;-69
2022/11/14 11:16:22;;;;;;;48.72;20.35;;;;;;;;;;5028615;28;20038;-70
2022/11/14 11:18:47;;;;;;;48.50;19.45;;;;;;;;;;5029096;28;20423;-71
2022/11/14 11:21:13;;;;;;;36.72;18.85;;;;;;;;;;5029706;28;20025;-70
2022/11/14 11:23:55;;;;;;;41.28;19.58;;;;;;;;;;5028864;28;20215;-71
2022/11/14 11:26:20;;;;;;;44.50;19.50;;;;;;;;;;5027333;28;20026;-70
2022/11/14 11:29:00;;;;;;;39.55;18.60;;;;;;;;;;5029256;28;20032;-71
2022/11/14 11:31:25;;;;;;;39.60;18.83;;;;;;;;;;5029179;28;20640;-68
2022/11/14 11:33:50;;;;;;;40.85;18.70;;;;;;;;;;5031859;28;20030;-71
2022/11/14 11:36:19;;;;;;;37.25;18.05;;;;;;;;;;5032130;28;20100;-71
2022/11/14 11:38:45;;;;;;;;;;;;;;;;;;5032421;28;20041;-66
2022/11/14 11:41:19;;;;;;;45.65;17.30;;;;;;;;;;5031168;28;20433;-69
2022/11/14 11:43:50;;;;;;;36.05;15.05;;;;;;;;;;5032912;28;20254;-70
2022/11/14 11:46:19;;;;;;;43.85;16.83;;;;;;;;;;5029933;28;20064;-70
2022/11/14 11:48:46;;;;;;;34.22;16.25;;;;;;;;;;5031792;28;20082;-69
2022/11/14 11:51:14;;;;;;;35.40;15.10;;;;;;;;;;5033116;28;20033;-70
2022/11/14 11:53:45;;;;;;;32.85;14.95;;;;;;;;;;5031894;28;20175;-70
2022/11/14 11:56:12;;;;;;;43.22;14.85;;;;;;;;;;5032488;28;20052;-70
2022/11/14 11:59:00;;;;;;;34.70;15.57;;;;;;;;;;5031986;28;20467;-71
2022/11/14 12:01:25;;;;;;;35.15;15.63;;;;;;;;;;5030005;28;20045;-70
2022/11/14 12:03:52;;;;;;;29.20;14.55;;;;;;;;;;5029718;28;20025;-68
2022/11/14 12:06:23;;;;;;;29.77;13.18;;;;;;;;;;5056792;28;20052;-71
2022/11/14 12:08:57;;;;;;;31.35;13.15;;;;;;;;;;5027063;28;20029;-70
2022/11/14 12:11:25;;;;;;;28.10;13.23;;;;;;;;;;5032183;28;20025;-69
2022/11/14 12:14:02;;;;;;;28.30;13.90;;;;;;;;;;5031481;28;20013;-70
2022/11/14 12:16:46;;;;;;;33.28;13.30;;;;;;;;;;5031285;28;20048;-71
2022/11/14 12:19:20;;;;;;;27.65;13.63;;;;;;;;;;5026138;28;20009;-70
2022/11/14 12:21:52;;;;;;;26.13;12.93;;;;;;;;;;5030284;28;20044;-70
2022/11/14 12:24:20;;;;;;;27.75;13.90;;;;;;;;;;5030841;28;20028;-70
2022/11/14 12:26:49;;;;;;;31.20;12.77;;;;;;;;;;5031643;28;20025;-72
2022/11/14 12:29:17;;;;;;;25.42;12.50;;;;;;;;;;5032069;28;20040;-71
2022/11/14 12:31:43;;;;;;;28.42;12.80;;;;;;;;;;5033760;28;20116;-71
2022/11/14 12:34:19;;;;;;;25.73;12.90;;;;;;;;;;5030492;28;20604;-69
2022/11/14 12:36:45;;;;;;;33.47;12.95;;;;;;;;;;5030841;28;20097;-71
2022/11/14 12:39:19;;;;;;;27.52;11.95;;;;;;;;;;5029578;28;20108;-71
2022/11/14 12:41:45;;;;;;;26.38;11.95;;;;;;;;;;5030949;28;20586;-71
2022/11/14 12:44:25;;;;;;;28.42;12.05;;;;;;;;;;5030740;28;20022;-71
2022/11/14 12:47:06;;;;;;;28.85;13.60;;;;;;;;;;5030381;28;20021;-71
2022/11/14 12:49:46;;;;;;;25.50;11.68;;;;;;;;;;5030627;28;20059;-70
2022/11/14 12:52:30;;;;;;;27.60;12.20;;;;;;;;;;5031571;28;20021;-69
2022/11/14 12:54:55;;;;;;;27.83;12.88;;;;;;;;;;5030587;28;20091;-71
2022/11/14 12:57:46;;;;;;;32.22;14.10;;;;;;;;;;5029306;28;20014;-70
2022/11/14 13:00:11;;;;;;;23.83;12.52;;;;;;;;;;5030934;28;20017;-69
2022/11/14 13:02:39;;;;;;;24.77;11.18;;;;;;;;;;5031195;28;20090;-68
2022/11/14 13:05:23;;;;;;;27.47;11.27;;;;;;;;;;5029668;28;20164;-71
2022/11/14 13:08:07;;;;;;;24.80;11.43;;;;;;;;;;5030176;28;20045;-70
2022/11/14 13:10:38;;;;;;;23.52;10.43;;;;;;;;;;5018934;28;20088;-69
2022/11/14 13:21:47;;;;;;;20.23;10.37;;;;;;;;;;5030822;28;20399;-68
2022/11/14 13:24:12;;;;;;;21.75;10.82;;;;;;;;;;5029504;28;20032;-70
2022/11/14 13:26:38;;;;;;;18.38;9.70;;;;;;;;;;5030100;28;20029;-71
2022/11/14 13:29:04;;;;;;;22.08;10.25;;;;;;;;;;5031151;28;20553;-69
2022/11/14 13:31:32;;;;;;;25.42;10.93;;;;;;;;;;5029564;28;20018;-69
2022/11/14 13:33:58;;;;;;;31.23;11.70;;;;;;;;;;5029625;28;20077;-71
2022/11/14 13:36:44;;;;;;;22.92;11.57;;;;;;;;;;5029959;28;20025;-70
2022/11/14 13:39:22;;;;;;;21.60;10.65;;;;;;;;;;5030526;28;20666;-70
2022/11/14 13:42:06;;;;;;;23.35;12.15;;;;;;;;;;5030961;28;20014;-71
2022/11/14 13:44:50;;;;;;;26.17;9.65;;;;;;;;;;5033047;28;20048;-68
2022/11/14 13:47:24;;;;;;;27.70;9.63;;;;;;;;;;5032206;28;20047;-70
2022/11/14 13:49:51;;;;;;;25.85;10.40;;;;;;;;;;5034402;28;20030;-70
2022/11/14 13:52:16;;;;;;;25.10;10.27;;;;;;;;;;5035036;28;20014;-71
2022/11/14 13:54:46;;;;;;;21.02;10.95;;;;;;;;;;5035364;28;20521;-69
2022/11/14 13:57:21;;;;;;;24.27;10.63;;;;;;;;;;5031535;28;20466;-69
2022/11/14 13:59:49;;;;;;;19.48;9.55;;;;;;;;;;5030626;28;20017;-70
2022/11/14 14:02:30;;;;;;;27.20;11.13;;;;;;;;;;5028928;28;20491;-72
2022/11/14 14:05:01;;;;;;;22.63;11.45;;;;;;;;;;5023988;28;20029;-67
2022/11/14 14:07:29;;;;;;;29.08;11.75;;;;;;;;;;5029360;28;20028;-68
2022/11/14 14:10:13;;;;;;;25.35;12.25;;;;;;;;;;5030014;28;20025;-68
2022/11/14 14:12:57;;;;;;;25.50;11.57;;;;;;;;;;5030857;28;20565;-67
2022/11/14 14:15:22;;;;;;;23.70;11.13;;;;;;;;;;5018561;28;20108;-69
2022/11/14 14:18:06;;;;;;;26.33;11.30;;;;;;;;;;5031144;28;20045;-70
2022/11/14 14:20:40;;;;;;;34.50;12.85;;;;;;;;;;5033055;28;20097;-69
2022/11/14 14:23:15;;;;;;;28.77;11.75;;;;;;;;;;5033852;28;20028;-70
2022/11/14 14:25:40;;;;;;;28.25;12.63;;;;;;;;;;5033602;28;20025;-69
2022/11/14 14:28:14;;;;;;;22.27;10.73;;;;;;;;;;5030938;28;20388;-69
2022/11/14 14:30:39;;;;;;;24.27;11.50;;;;;;;;;;5028801;28;20025;-69
2022/11/14 14:33:13;;;;;;;30.17;13.13;;;;;;;;;;5029249;28;20037;-70